createdAt,value
2022-07-25T00:00:11.741Z,22.94
2022-07-25T00:02:39.525Z,22.95
2022-07-25T00:05:08.154Z,23.04
2022-07-25T00:07:35.914Z,22.88
2022-07-25T00:10:03.934Z,22.61
2022-07-25T00:12:31.592Z,22.62
2022-07-25T00:15:00.777Z,22.62
2022-07-25T00:17:28.499Z,22.69
2022-07-25T00:19:56.161Z,22.74
2022-07-25T00:22:23.874Z,22.49
2022-07-25T00:24:51.596Z,22.38
2022-07-25T00:27:19.232Z,22.50
2022-07-25T00:29:46.941Z,22.56
2022-07-25T00:32:16.090Z,22.64
2022-07-25T00:34:43.859Z,22.59
2022-07-25T00:37:11.564Z,22.61
2022-07-25T00:39:39.249Z,22.58
2022-07-25T00:42:07.322Z,22.53
2022-07-25T00:44:35.164Z,22.44
2022-07-25T00:47:03.062Z,22.32
2022-07-25T00:49:32.089Z,22.38
2022-07-25T00:52:00.336Z,22.29
2022-07-25T00:54:28.227Z,22.18
2022-07-25T00:56:56.014Z,22.17
2022-07-25T00:59:23.722Z,22.15
2022-07-25T01:01:51.906Z,22.20
2022-07-25T01:04:19.705Z,22.07
2022-07-25T01:06:48.762Z,22.03
2022-07-25T01:09:17.143Z,21.98
2022-07-25T01:11:44.812Z,21.99
2022-07-25T01:14:12.467Z,21.83
2022-07-25T01:16:41.201Z,21.86
2022-07-25T01:19:08.938Z,21.99
2022-07-25T01:21:40.588Z,21.95
2022-07-25T01:24:09.412Z,21.92
2022-07-25T01:26:37.299Z,21.91
2022-07-25T01:29:05.104Z,21.77
2022-07-25T01:31:32.861Z,21.73
2022-07-25T01:34:00.537Z,21.68
2022-07-25T01:36:28.286Z,21.68
2022-07-25T01:38:57.245Z,21.69
2022-07-25T01:41:24.950Z,21.67
2022-07-25T01:43:52.633Z,21.75
2022-07-25T01:46:20.315Z,21.73
2022-07-25T01:48:48.094Z,21.63
2022-07-25T01:51:15.839Z,21.60
2022-07-25T01:53:48.132Z,21.54
2022-07-25T01:56:17.408Z,21.45
2022-07-25T01:58:47.118Z,21.38
2022-07-25T02:01:14.831Z,21.46
2022-07-25T02:03:42.639Z,21.31
2022-07-25T02:06:10.315Z,21.30
2022-07-25T02:08:37.978Z,21.37
2022-07-25T02:11:05.774Z,21.50
2022-07-25T02:13:34.806Z,21.50
2022-07-25T02:16:02.445Z,21.49
2022-07-25T02:18:30.549Z,21.52
2022-07-25T02:20:58.265Z,21.36
2022-07-25T02:23:25.917Z,21.19
2022-07-25T02:25:53.551Z,21.14
2022-07-25T02:28:21.229Z,21.18
2022-07-25T02:30:50.272Z,21.14
2022-07-25T02:33:18.102Z,21.02
2022-07-25T02:35:45.726Z,20.89
2022-07-25T02:38:19.419Z,20.81
2022-07-25T02:40:47.334Z,20.94
2022-07-25T02:43:14.995Z,20.97
2022-07-25T02:45:43.607Z,20.98
2022-07-25T02:48:12.724Z,20.95
2022-07-25T02:50:40.694Z,20.94
2022-07-25T02:53:08.346Z,20.89
2022-07-25T02:55:35.961Z,20.84
2022-07-25T02:58:03.660Z,20.77
2022-07-25T03:00:31.403Z,20.69
2022-07-25T03:02:59.381Z,20.66
2022-07-25T03:05:28.483Z,20.58
2022-07-25T03:07:56.234Z,20.42
2022-07-25T03:10:23.879Z,20.48
2022-07-25T03:12:51.552Z,20.64
2022-07-25T03:15:19.230Z,20.70
2022-07-25T03:17:46.992Z,20.49
2022-07-25T03:20:14.683Z,20.44
2022-07-25T03:22:43.765Z,20.41
2022-07-25T03:25:15.567Z,20.36
2022-07-25T03:27:49.601Z,20.40
2022-07-25T03:30:17.282Z,20.42
2022-07-25T03:32:44.942Z,20.24
2022-07-25T03:35:12.643Z,20.14
2022-07-25T03:37:40.351Z,20.13
2022-07-25T03:40:10.399Z,20.16
2022-07-25T03:42:38.027Z,20.16
2022-07-25T03:45:06.615Z,20.14
2022-07-25T03:47:34.200Z,20.13
2022-07-25T03:50:01.901Z,20.15
2022-07-25T03:52:29.519Z,20.26
2022-07-25T03:54:57.195Z,20.17
2022-07-25T03:57:26.245Z,20.12
2022-07-25T03:59:53.922Z,20.06
2022-07-25T04:02:21.653Z,20.09
2022-07-25T04:04:49.335Z,20.11
2022-07-25T04:07:17.024Z,20.20
2022-07-25T04:09:44.699Z,20.19
2022-07-25T04:12:12.806Z,20.24
2022-07-25T04:14:41.786Z,20.28
2022-07-25T04:17:09.518Z,20.37
2022-07-25T04:19:37.339Z,20.39
2022-07-25T04:22:05.038Z,20.42
2022-07-25T04:24:32.646Z,20.45
2022-07-25T04:27:00.314Z,20.57
2022-07-25T04:29:27.978Z,20.55
2022-07-25T04:31:58.064Z,20.65
2022-07-25T04:34:26.181Z,20.63
2022-07-25T04:36:53.896Z,20.66
2022-07-25T04:39:21.602Z,20.65
2022-07-25T04:41:49.318Z,20.77
2022-07-25T04:44:16.987Z,20.79
2022-07-25T04:46:44.800Z,20.79
2022-07-25T04:49:13.848Z,20.86
2022-07-25T04:51:41.511Z,20.92
2022-07-25T04:54:09.923Z,20.93
2022-07-25T04:56:37.860Z,20.98
2022-07-25T04:59:06.387Z,20.98
2022-07-25T05:01:34.693Z,21.02
2022-07-25T05:04:02.863Z,21.08
2022-07-25T05:06:32.000Z,21.15
2022-07-25T05:08:59.617Z,21.19
2022-07-25T05:11:27.278Z,21.27
2022-07-25T05:13:54.906Z,21.36
2022-07-25T05:16:22.587Z,21.38
2022-07-25T05:18:50.245Z,21.45
2022-07-25T05:21:17.895Z,21.47
2022-07-25T05:23:46.896Z,21.61
2022-07-25T05:26:14.507Z,21.67
2022-07-25T05:28:42.196Z,21.71
2022-07-25T05:31:09.836Z,21.87
2022-07-25T05:33:37.524Z,21.99
2022-07-25T05:36:05.981Z,22.05
2022-07-25T05:38:34.018Z,22.19
2022-07-25T05:41:03.127Z,22.24
2022-07-25T05:43:30.790Z,22.39
2022-07-25T05:46:01.899Z,22.46
2022-07-25T05:48:29.715Z,22.48
2022-07-25T05:50:59.126Z,22.47
2022-07-25T05:53:27.174Z,22.62
2022-07-25T05:55:54.938Z,22.65
2022-07-25T05:58:29.082Z,22.71
2022-07-25T06:00:57.748Z,22.80
2022-07-25T06:03:25.504Z,23.01
2022-07-25T06:05:53.181Z,23.12
2022-07-25T06:08:20.905Z,23.06
2022-07-25T06:10:50.235Z,23.33
2022-07-25T06:13:17.943Z,23.15
2022-07-25T06:15:49.883Z,23.31
2022-07-25T06:18:17.530Z,23.35
2022-07-25T06:20:45.210Z,23.42
2022-07-25T06:23:12.894Z,23.40
2022-07-25T06:25:40.834Z,23.45
2022-07-25T06:28:08.956Z,23.70
2022-07-25T06:30:38.404Z,23.63
2022-07-25T06:33:07.520Z,23.72
2022-07-25T06:35:35.173Z,23.82
2022-07-25T06:38:03.339Z,23.82
2022-07-25T06:40:31.094Z,23.82
2022-07-25T06:42:58.906Z,23.93
2022-07-25T06:45:26.548Z,24.05
2022-07-25T06:47:54.236Z,24.26
2022-07-25T06:50:23.379Z,24.38
2022-07-25T06:52:51.359Z,24.54
2022-07-25T06:55:19.103Z,24.61
2022-07-25T06:57:46.902Z,24.63
2022-07-25T07:00:15.707Z,24.73
2022-07-25T07:02:54.366Z,24.87
2022-07-25T07:05:23.826Z,24.99
2022-07-25T07:07:51.491Z,24.87
2022-07-25T07:10:19.449Z,24.94
2022-07-25T07:12:47.596Z,25.20
2022-07-25T07:15:15.439Z,25.32
2022-07-25T07:17:43.273Z,25.40
2022-07-25T07:20:12.345Z,25.44
2022-07-25T07:22:46.636Z,25.57
2022-07-25T07:25:15.446Z,25.71
2022-07-25T07:27:43.501Z,25.67
2022-07-25T07:30:12.225Z,25.81
2022-07-25T07:32:40.133Z,25.90
2022-07-25T07:35:08.451Z,26.03
2022-07-25T07:37:41.457Z,26.17
2022-07-25T07:40:18.149Z,26.24
2022-07-25T07:42:47.490Z,26.34
2022-07-25T07:45:16.742Z,26.45
2022-07-25T07:47:45.048Z,26.55
2022-07-25T07:50:12.772Z,26.52
2022-07-25T07:52:40.424Z,26.64
2022-07-25T07:55:26.495Z,26.73
2022-07-25T07:57:55.555Z,26.75
2022-07-25T08:00:23.792Z,26.79
2022-07-25T08:02:52.993Z,27.13
2022-07-25T08:05:22.468Z,27.14
2022-07-25T08:07:51.556Z,27.15
2022-07-25T08:10:21.542Z,27.13
2022-07-25T08:12:49.433Z,27.14
2022-07-25T08:15:19.126Z,27.25
2022-07-25T08:17:47.367Z,27.49
2022-07-25T08:20:36.720Z,27.60
2022-07-25T08:23:03.691Z,27.59
2022-07-25T08:25:32.169Z,27.77
2022-07-25T08:28:00.224Z,27.80
2022-07-25T08:30:29.562Z,28.08
2022-07-25T08:32:59.700Z,28.29
2022-07-25T08:35:28.799Z,28.36
2022-07-25T08:37:57.254Z,28.58
2022-07-25T08:40:26.902Z,28.66
2022-07-25T08:42:56.403Z,28.79
2022-07-25T08:45:24.591Z,28.77
2022-07-25T08:47:55.016Z,28.74
2022-07-25T08:50:25.348Z,28.91
2022-07-25T08:53:04.926Z,29.07
2022-07-25T08:55:40.985Z,29.30
2022-07-25T08:58:08.672Z,29.44
2022-07-25T09:00:36.632Z,29.54
2022-07-25T09:03:07.211Z,29.75
2022-07-25T09:05:37.245Z,29.88
2022-07-25T09:08:08.608Z,29.98
2022-07-25T09:10:36.950Z,29.92
2022-07-25T09:13:07.776Z,30.16
2022-07-25T09:15:36.825Z,30.52
2022-07-25T09:18:07.574Z,30.93
2022-07-25T09:20:40.987Z,30.93
2022-07-25T09:23:09.120Z,31.23
2022-07-25T09:25:37.013Z,31.37
2022-07-25T09:28:14.834Z,31.48
2022-07-25T09:30:55.137Z,31.85
2022-07-25T09:33:25.685Z,31.66
2022-07-25T09:35:54.331Z,31.56
2022-07-25T09:38:23.035Z,31.47
2022-07-25T09:40:58.055Z,31.71
2022-07-25T09:43:36.950Z,31.97
2022-07-25T09:46:05.091Z,32.21
2022-07-25T09:48:34.341Z,32.29
2022-07-25T09:51:02.553Z,32.55
2022-07-25T09:53:30.387Z,32.36
2022-07-25T09:55:58.048Z,32.64
2022-07-25T09:58:25.885Z,32.52
2022-07-25T10:00:57.476Z,32.75
2022-07-25T10:03:30.890Z,32.92
2022-07-25T10:06:11.412Z,33.08
2022-07-25T10:08:39.946Z,33.17
2022-07-25T10:11:18.697Z,33.23
2022-07-25T10:13:46.388Z,33.47
2022-07-25T10:16:18.945Z,33.63
2022-07-25T10:18:51.959Z,33.45
2022-07-25T10:21:27.218Z,33.48
2022-07-25T10:24:03.661Z,33.54
2022-07-25T10:26:32.785Z,33.48
2022-07-25T10:29:01.702Z,33.38
2022-07-25T10:31:37.002Z,33.15
2022-07-25T10:34:07.221Z,33.08
2022-07-25T10:36:47.485Z,33.09
2022-07-25T10:39:16.437Z,33.18
2022-07-25T10:41:53.754Z,33.08
2022-07-25T10:44:21.671Z,33.21
2022-07-25T10:46:50.231Z,33.33
2022-07-25T10:49:19.901Z,33.53
2022-07-25T10:51:57.317Z,33.79
2022-07-25T10:54:25.031Z,33.86
2022-07-25T10:56:55.056Z,33.87
2022-07-25T10:59:34.952Z,33.89
2022-07-25T11:02:03.483Z,34.01
2022-07-25T11:04:31.764Z,34.08
2022-07-25T11:07:09.298Z,34.08
2022-07-25T11:09:37.009Z,34.00
2022-07-25T11:12:05.408Z,33.98
2022-07-25T11:14:34.951Z,33.84
2022-07-25T11:17:15.607Z,33.69
2022-07-25T11:19:44.781Z,33.42
2022-07-25T11:22:13.798Z,33.36
2022-07-25T11:24:43.010Z,33.18
2022-07-25T11:27:12.757Z,33.12
2022-07-25T11:29:41.324Z,33.24
2022-07-25T11:32:10.555Z,33.36
2022-07-25T11:34:41.211Z,33.67
2022-07-25T11:37:11.348Z,33.88
2022-07-25T11:39:42.085Z,34.05
2022-07-25T11:42:11.343Z,34.07
2022-07-25T11:44:44.251Z,34.21
2022-07-25T11:47:24.806Z,34.36
2022-07-25T11:49:53.550Z,34.34
2022-07-25T11:52:22.451Z,34.33
2022-07-25T11:54:58.595Z,34.22
2022-07-25T11:57:28.870Z,34.61
2022-07-25T11:59:57.088Z,34.88
2022-07-25T12:02:26.259Z,34.87
2022-07-25T12:04:58.132Z,35.00
2022-07-25T12:07:37.694Z,35.09
2022-07-25T12:10:08.129Z,34.99
2022-07-25T12:12:51.240Z,34.73
2022-07-25T12:15:23.053Z,34.57
2022-07-25T12:17:51.634Z,34.15
2022-07-25T12:20:21.033Z,34.25
2022-07-25T12:22:49.727Z,34.20
2022-07-25T12:25:18.764Z,33.89
2022-07-25T12:27:46.662Z,33.90
2022-07-25T12:30:15.012Z,33.92
2022-07-25T12:32:43.115Z,33.61
2022-07-25T12:35:12.280Z,33.66
2022-07-25T12:37:41.228Z,33.35
2022-07-25T12:40:10.482Z,33.32
2022-07-25T12:42:39.511Z,33.31
2022-07-25T12:45:08.541Z,33.28
2022-07-25T12:47:36.747Z,33.28
2022-07-25T12:50:06.224Z,33.11
2022-07-25T12:52:33.917Z,33.01
2022-07-25T12:55:01.660Z,32.67
2022-07-25T12:57:29.304Z,32.61
2022-07-25T12:59:58.359Z,32.39
2022-07-25T13:02:26.112Z,32.42
2022-07-25T13:04:53.782Z,32.38
2022-07-25T13:07:21.605Z,32.72
2022-07-25T13:09:49.281Z,33.14
2022-07-25T13:12:16.973Z,33.35
2022-07-25T13:14:44.683Z,33.47
2022-07-25T13:17:13.687Z,33.34
2022-07-25T13:19:41.798Z,33.53
2022-07-25T13:22:09.495Z,33.50
2022-07-25T13:24:37.438Z,33.38
2022-07-25T13:27:05.697Z,33.25
2022-07-25T13:29:33.459Z,33.07
2022-07-25T13:32:02.579Z,33.38
2022-07-25T13:34:31.819Z,33.41
2022-07-25T13:36:59.593Z,33.49
2022-07-25T13:39:27.284Z,33.18
2022-07-25T13:41:55.014Z,33.32
2022-07-25T13:44:22.731Z,33.52
2022-07-25T13:46:50.603Z,33.42
2022-07-25T13:49:18.832Z,33.59
2022-07-25T13:51:47.887Z,33.60
2022-07-25T13:54:15.653Z,33.92
2022-07-25T13:56:43.381Z,34.03
2022-07-25T13:59:16.003Z,34.11
2022-07-25T14:01:47.422Z,33.83
2022-07-25T14:04:15.207Z,33.91
2022-07-25T14:06:42.988Z,33.85
2022-07-25T14:09:12.040Z,33.69
2022-07-25T14:11:39.808Z,33.81
2022-07-25T14:14:07.601Z,33.71
2022-07-25T14:16:35.430Z,33.85
2022-07-25T14:19:03.522Z,33.76
2022-07-25T14:21:31.718Z,33.67
2022-07-25T14:23:59.398Z,33.55
2022-07-25T14:26:28.725Z,33.48
2022-07-25T14:28:56.665Z,33.44
2022-07-25T14:31:24.485Z,33.36
2022-07-25T14:33:52.413Z,33.37
2022-07-25T14:36:20.129Z,33.63
2022-07-25T14:38:48.294Z,33.74
2022-07-25T14:41:16.469Z,33.92
2022-07-25T14:43:45.660Z,33.99
2022-07-25T14:46:13.363Z,33.85
2022-07-25T14:48:41.328Z,33.58
2022-07-25T14:51:09.155Z,33.43
2022-07-25T14:53:37.289Z,33.55
2022-07-25T14:56:06.522Z,33.71
2022-07-25T14:58:34.734Z,33.89
2022-07-25T15:01:03.832Z,33.92
2022-07-25T15:03:31.811Z,33.77
2022-07-25T15:05:59.548Z,33.71
2022-07-25T15:08:27.297Z,33.97
2022-07-25T15:10:54.930Z,33.86
2022-07-25T15:13:31.469Z,33.99
2022-07-25T15:15:59.948Z,33.99
2022-07-25T15:18:29.207Z,33.89
2022-07-25T15:20:56.873Z,33.93
2022-07-25T15:23:24.900Z,33.87
2022-07-25T15:26:08.098Z,33.79
2022-07-25T15:28:38.481Z,33.84
2022-07-25T15:31:06.918Z,33.63
2022-07-25T15:33:35.932Z,33.44
2022-07-25T15:36:03.756Z,33.00
2022-07-25T15:38:31.575Z,32.97
2022-07-25T15:40:59.355Z,33.13
2022-07-25T15:43:27.370Z,32.96
2022-07-25T15:45:55.011Z,32.86
2022-07-25T15:48:23.595Z,32.65
2022-07-25T15:50:52.802Z,32.73
2022-07-25T15:53:20.616Z,32.46
2022-07-25T15:55:48.503Z,32.58
2022-07-25T15:58:16.313Z,32.40
2022-07-25T16:00:44.295Z,32.57
2022-07-25T16:03:13.691Z,32.63
2022-07-25T16:05:42.132Z,32.58
2022-07-25T16:08:11.144Z,32.52
2022-07-25T16:10:39.805Z,32.64
2022-07-25T16:13:07.578Z,32.57
2022-07-25T16:15:35.582Z,32.91
2022-07-25T16:18:03.406Z,32.70
2022-07-25T16:20:32.289Z,32.71
2022-07-25T16:23:00.533Z,32.60
2022-07-25T16:25:30.285Z,32.26
2022-07-25T16:27:59.536Z,32.38
2022-07-25T16:30:27.804Z,32.22
2022-07-25T16:32:55.901Z,32.12
2022-07-25T16:35:23.774Z,31.99
2022-07-25T16:37:51.609Z,31.92
2022-07-25T16:40:19.256Z,31.82
2022-07-25T16:42:50.505Z,31.86
2022-07-25T16:45:18.161Z,31.87
2022-07-25T16:47:45.790Z,31.79
2022-07-25T16:50:13.584Z,31.48
2022-07-25T16:52:41.193Z,31.32
2022-07-25T16:55:09.512Z,31.11
2022-07-25T16:57:38.867Z,31.16
2022-07-25T17:00:11.397Z,30.98
2022-07-25T17:02:39.753Z,30.93
2022-07-25T17:05:07.949Z,30.71
2022-07-25T17:07:35.783Z,30.65
2022-07-25T17:10:03.817Z,30.59
2022-07-25T17:12:31.495Z,30.34
2022-07-25T17:14:59.186Z,30.29
2022-07-25T17:17:28.170Z,30.39
2022-07-25T17:19:59.889Z,30.43
2022-07-25T17:22:27.893Z,30.38
2022-07-25T17:24:58.680Z,30.36
2022-07-25T17:27:26.373Z,30.33
2022-07-25T17:29:54.062Z,30.44
2022-07-25T17:32:25.023Z,30.48
2022-07-25T17:34:56.775Z,30.35
2022-07-25T17:37:24.490Z,30.19
2022-07-25T17:39:52.260Z,29.94
2022-07-25T17:42:22.228Z,29.90
2022-07-25T17:44:50.272Z,29.68
2022-07-25T17:47:18.471Z,29.48
2022-07-25T17:49:46.231Z,29.41
2022-07-25T17:52:15.932Z,29.08
2022-07-25T17:54:43.758Z,29.14
2022-07-25T17:57:11.905Z,29.05
2022-07-25T17:59:39.651Z,28.86
2022-07-25T18:02:07.522Z,28.79
2022-07-25T18:04:36.546Z,28.71
2022-07-25T18:07:05.691Z,28.61
2022-07-25T18:09:34.800Z,28.55
2022-07-25T18:12:02.525Z,28.35
2022-07-25T18:14:30.652Z,28.10
2022-07-25T18:16:58.694Z,28.04
2022-07-25T18:19:26.483Z,27.97
2022-07-25T18:21:54.303Z,27.83
2022-07-25T18:24:30.489Z,27.73
2022-07-25T18:27:10.409Z,27.65
2022-07-25T18:29:47.093Z,27.55
2022-07-25T18:32:23.636Z,27.50
2022-07-25T18:35:00.676Z,27.41
2022-07-25T18:37:38.297Z,27.48
2022-07-25T18:40:17.837Z,27.41
2022-07-25T18:43:00.009Z,27.37
2022-07-25T18:45:42.830Z,27.29
2022-07-25T18:48:22.934Z,27.14
2022-07-25T18:50:54.120Z,27.20
2022-07-25T18:53:21.789Z,26.98
2022-07-25T18:55:49.661Z,26.97
2022-07-25T18:58:18.833Z,26.89
2022-07-25T19:00:46.598Z,26.74
2022-07-25T19:03:14.320Z,26.86
2022-07-25T19:05:43.012Z,26.73
2022-07-25T19:08:10.879Z,26.74
2022-07-25T19:10:38.656Z,26.68
2022-07-25T19:13:06.297Z,26.65
2022-07-25T19:15:35.813Z,26.53
2022-07-25T19:18:05.109Z,26.37
2022-07-25T19:20:33.320Z,26.25
2022-07-25T19:23:01.007Z,26.26
2022-07-25T19:25:28.730Z,26.05
2022-07-25T19:27:56.434Z,26.14
2022-07-25T19:30:24.103Z,26.12
2022-07-25T19:32:53.245Z,26.05
2022-07-25T19:35:26.075Z,25.91
2022-07-25T19:37:54.163Z,25.83
2022-07-25T19:40:21.980Z,25.61
2022-07-25T19:42:49.698Z,25.60
2022-07-25T19:45:17.336Z,25.54
2022-07-25T19:47:45.217Z,25.44
2022-07-25T19:50:14.281Z,25.37
2022-07-25T19:52:42.093Z,25.29
2022-07-25T19:55:10.958Z,25.18
2022-07-25T19:57:38.825Z,25.05
2022-07-25T20:00:08.340Z,24.92
2022-07-25T20:02:36.190Z,24.86
2022-07-25T20:05:04.075Z,24.89
2022-07-25T20:07:33.399Z,24.84
2022-07-25T20:10:01.124Z,24.85
2022-07-25T20:12:29.051Z,24.77
2022-07-25T20:14:56.824Z,24.77
2022-07-25T20:17:24.494Z,24.68
2022-07-25T20:19:52.791Z,24.83
2022-07-25T20:22:20.690Z,24.70
2022-07-25T20:24:49.746Z,24.69
2022-07-25T20:27:17.518Z,24.59
2022-07-25T20:29:45.216Z,24.69
2022-07-25T20:32:12.934Z,24.72
2022-07-25T20:34:40.644Z,24.67
2022-07-25T20:37:08.405Z,24.53
2022-07-25T20:39:36.243Z,24.41
2022-07-25T20:42:05.634Z,24.44
2022-07-25T20:44:33.324Z,24.42
2022-07-25T20:47:01.515Z,24.18
2022-07-25T20:49:36.060Z,24.03
2022-07-25T20:52:11.157Z,24.00
2022-07-25T20:54:39.862Z,24.05
2022-07-25T20:57:08.942Z,24.12
2022-07-25T20:59:36.569Z,23.91
2022-07-25T21:02:04.328Z,23.81
2022-07-25T21:04:32.039Z,23.98
2022-07-25T21:06:59.712Z,23.72
2022-07-25T21:09:32.499Z,23.90
2022-07-25T21:12:00.486Z,23.74
2022-07-25T21:14:29.838Z,23.66
2022-07-25T21:16:57.704Z,23.55
2022-07-25T21:19:25.440Z,23.51
2022-07-25T21:21:53.217Z,23.45
2022-07-25T21:24:20.868Z,23.50
2022-07-25T21:26:48.690Z,23.48
2022-07-25T21:29:16.373Z,23.50
2022-07-25T21:31:45.459Z,23.42
2022-07-25T21:34:13.201Z,23.43
2022-07-25T21:36:40.948Z,23.36
2022-07-25T21:39:09.352Z,23.36
2022-07-25T21:41:37.448Z,23.34
2022-07-25T21:44:05.477Z,23.32
2022-07-25T21:46:33.232Z,23.17
2022-07-25T21:49:40.698Z,23.09
2022-07-25T21:52:07.596Z,23.14
2022-07-25T21:54:36.318Z,23.14
2022-07-25T21:57:04.322Z,23.08
2022-07-25T21:59:31.989Z,23.05
2022-07-25T22:02:00.462Z,22.94
2022-07-25T22:04:29.520Z,22.90
2022-07-25T22:06:57.198Z,23.02
2022-07-25T22:09:24.854Z,22.86
2022-07-25T22:11:52.514Z,22.82
2022-07-25T22:14:20.175Z,22.80
2022-07-25T22:16:48.089Z,22.73
2022-07-25T22:21:44.811Z,22.67
2022-07-25T22:24:12.559Z,22.70
2022-07-25T22:26:40.190Z,22.64
2022-07-25T22:29:10.511Z,22.60
2022-07-25T22:31:39.497Z,22.50
2022-07-25T22:34:10.122Z,22.43
2022-07-25T22:36:38.183Z,22.43
2022-07-25T22:39:08.006Z,22.37
2022-07-25T22:41:36.274Z,22.27
2022-07-25T22:44:05.556Z,22.09
2022-07-25T22:46:34.551Z,22.15
2022-07-25T22:49:03.246Z,21.95
2022-07-25T22:51:31.309Z,21.96
2022-07-25T22:54:01.897Z,21.99
2022-07-25T22:56:31.650Z,22.00
2022-07-25T22:59:00.354Z,21.77
2022-07-25T23:01:30.160Z,21.72
2022-07-25T23:03:58.533Z,21.75
2022-07-25T23:06:26.874Z,21.67
2022-07-25T23:08:56.010Z,21.55
2022-07-25T23:11:24.532Z,21.77
2022-07-25T23:13:55.713Z,21.59
2022-07-25T23:16:27.681Z,21.34
2022-07-25T23:18:57.147Z,21.44
2022-07-25T23:21:25.524Z,21.12
2022-07-25T23:23:55.401Z,21.02
2022-07-25T23:26:23.286Z,21.03
2022-07-25T23:28:51.162Z,21.16
2022-07-25T23:31:20.284Z,20.91
2022-07-25T23:33:50.614Z,20.86
2022-07-25T23:36:18.355Z,20.84
2022-07-25T23:38:46.710Z,20.80
2022-07-25T23:41:14.455Z,20.68
2022-07-25T23:43:56.947Z,20.66
2022-07-25T23:46:30.905Z,20.67
2022-07-25T23:48:59.985Z,20.57
2022-07-25T23:51:27.790Z,20.45
2022-07-25T23:53:55.483Z,20.48
2022-07-25T23:56:23.371Z,20.41
2022-07-25T23:58:51.261Z,20.48
